sensor_id;sensor_type;location;lat;lon;timestamp;P1;durP1;ratioP1;P2;durP2;ratioP2
58784;SDS011;44557;51.862;19.378;2022-10-26T00:01:02;14.20;;;9.20;;
58784;SDS011;44557;51.862;19.378;2022-10-26T00:02:11;12.90;;;9.30;;
58784;SDS011;44557;51.862;19.378;2022-10-26T00:03:12;14.90;;;9.60;;
58784;SDS011;44557;51.862;19.378;2022-10-26T00:04:15;14.50;;;9.40;;
58784;SDS011;44557;51.862;19.378;2022-10-26T00:05:16;15.60;;;9.90;;
58784;SDS011;44557;51.862;19.378;2022-10-26T00:06:19;15.30;;;10.20;;
58784;SDS011;44557;51.862;19.378;2022-10-26T00:07:22;12.80;;;9.50;;
58784;SDS011;44557;51.862;19.378;2022-10-26T00:08:24;13.30;;;9.60;;
58784;SDS011;44557;51.862;19.378;2022-10-26T00:09:25;14.10;;;9.90;;
58784;SDS011;44557;51.862;19.378;2022-10-26T00:10:27;13.80;;;9.50;;
58784;SDS011;44557;51.862;19.378;2022-10-26T00:11:28;11.90;;;9.50;;
58784;SDS011;44557;51.862;19.378;2022-10-26T00:12:30;13.40;;;10.00;;
58784;SDS011;44557;51.862;19.378;2022-10-26T00:13:32;14.40;;;10.00;;
58784;SDS011;44557;51.862;19.378;2022-10-26T00:14:34;15.80;;;10.50;;
58784;SDS011;44557;51.862;19.378;2022-10-26T00:15:40;11.70;;;9.40;;
58784;SDS011;44557;51.862;19.378;2022-10-26T00:16:43;14.20;;;10.60;;
58784;SDS011;44557;51.862;19.378;2022-10-26T00:17:45;12.90;;;9.60;;
58784;SDS011;44557;51.862;19.378;2022-10-26T00:18:48;13.90;;;10.00;;
58784;SDS011;44557;51.862;19.378;2022-10-26T00:19:50;14.80;;;10.00;;
58784;SDS011;44557;51.862;19.378;2022-10-26T00:20:51;15.70;;;10.50;;
58784;SDS011;44557;51.862;19.378;2022-10-26T00:21:53;14.40;;;10.40;;
58784;SDS011;44557;51.862;19.378;2022-10-26T00:22:54;13.50;;;9.90;;
58784;SDS011;44557;51.862;19.378;2022-10-26T00:23:57;14.50;;;10.50;;
58784;SDS011;44557;51.862;19.378;2022-10-26T00:25:00;16.20;;;10.60;;
58784;SDS011;44557;51.862;19.378;2022-10-26T00:26:01;15.40;;;10.60;;
58784;SDS011;44557;51.862;19.378;2022-10-26T00:27:03;16.00;;;11.00;;
58784;SDS011;44557;51.862;19.378;2022-10-26T00:28:05;14.20;;;10.70;;
58784;SDS011;44557;51.862;19.378;2022-10-26T00:29:07;16.30;;;10.40;;
58784;SDS011;44557;51.862;19.378;2022-10-26T00:30:10;16.50;;;10.90;;
58784;SDS011;44557;51.862;19.378;2022-10-26T00:31:12;14.90;;;10.70;;
58784;SDS011;44557;51.862;19.378;2022-10-26T00:32:15;15.40;;;10.90;;
58784;SDS011;44557;51.862;19.378;2022-10-26T00:33:17;16.40;;;11.20;;
58784;SDS011;44557;51.862;19.378;2022-10-26T00:34:18;13.60;;;10.50;;
58784;SDS011;44557;51.862;19.378;2022-10-26T00:35:20;16.20;;;10.50;;
58784;SDS011;44557;51.862;19.378;2022-10-26T00:36:22;14.50;;;10.20;;
58784;SDS011;44557;51.862;19.378;2022-10-26T00:37:25;14.70;;;11.50;;
58784;SDS011;44557;51.862;19.378;2022-10-26T00:38:27;16.10;;;10.70;;
58784;SDS011;44557;51.862;19.378;2022-10-26T00:39:28;14.50;;;10.70;;
58784;SDS011;44557;51.862;19.378;2022-10-26T00:40:30;13.40;;;10.60;;
58784;SDS011;44557;51.862;19.378;2022-10-26T00:41:32;16.00;;;11.50;;
58784;SDS011;44557;51.862;19.378;2022-10-26T00:42:35;13.70;;;11.20;;
58784;SDS011;44557;51.862;19.378;2022-10-26T00:43:37;15.90;;;11.70;;
58784;SDS011;44557;51.862;19.378;2022-10-26T00:45:50;14.30;;;10.50;;
58784;SDS011;44557;51.862;19.378;2022-10-26T00:46:56;15.80;;;10.70;;
58784;SDS011;44557;51.862;19.378;2022-10-26T00:47:58;15.80;;;12.30;;
58784;SDS011;44557;51.862;19.378;2022-10-26T00:49:13;15.10;;;11.10;;
58784;SDS011;44557;51.862;19.378;2022-10-26T00:50:21;13.90;;;10.70;;
58784;SDS011;44557;51.862;19.378;2022-10-26T00:51:38;17.50;;;12.10;;
58784;SDS011;44557;51.862;19.378;2022-10-26T00:52:44;16.10;;;12.10;;
58784;SDS011;44557;51.862;19.378;2022-10-26T00:53:47;17.60;;;11.20;;
58784;SDS011;44557;51.862;19.378;2022-10-26T00:54:48;14.00;;;11.10;;
58784;SDS011;44557;51.862;19.378;2022-10-26T00:55:51;14.90;;;11.40;;
58784;SDS011;44557;51.862;19.378;2022-10-26T00:56:54;16.50;;;11.40;;
58784;SDS011;44557;51.862;19.378;2022-10-26T00:57:56;16.40;;;11.70;;
58784;SDS011;44557;51.862;19.378;2022-10-26T00:59:00;15.00;;;11.10;;
58784;SDS011;44557;51.862;19.378;2022-10-26T01:00:05;18.00;;;11.00;;
58784;SDS011;44557;51.862;19.378;2022-10-26T01:01:08;15.50;;;11.20;;
58784;SDS011;44557;51.862;19.378;2022-10-26T01:02:09;17.00;;;11.10;;
58784;SDS011;44557;51.862;19.378;2022-10-26T01:03:13;16.30;;;11.30;;
58784;SDS011;44557;51.862;19.378;2022-10-26T01:04:14;16.00;;;11.40;;
58784;SDS011;44557;51.862;19.378;2022-10-26T01:05:17;15.20;;;12.10;;
58784;SDS011;44557;51.862;19.378;2022-10-26T01:06:19;17.90;;;11.40;;
58784;SDS011;44557;51.862;19.378;2022-10-26T01:07:21;14.70;;;11.30;;
58784;SDS011;44557;51.862;19.378;2022-10-26T01:08:24;16.50;;;11.90;;
58784;SDS011;44557;51.862;19.378;2022-10-26T01:09:28;15.10;;;10.90;;
58784;SDS011;44557;51.862;19.378;2022-10-26T01:10:31;17.50;;;12.40;;
58784;SDS011;44557;51.862;19.378;2022-10-26T01:11:34;15.50;;;12.10;;
58784;SDS011;44557;51.862;19.378;2022-10-26T01:12:36;16.50;;;11.20;;
58784;SDS011;44557;51.862;19.378;2022-10-26T01:13:38;14.50;;;11.60;;
58784;SDS011;44557;51.862;19.378;2022-10-26T01:14:42;15.70;;;11.80;;
58784;SDS011;44557;51.862;19.378;2022-10-26T01:18:09;16.30;;;11.60;;
58784;SDS011;44557;51.862;19.378;2022-10-26T01:22:14;15.60;;;11.90;;
58784;SDS011;44557;51.862;19.378;2022-10-26T01:23:30;19.40;;;13.10;;
58784;SDS011;44557;51.862;19.378;2022-10-26T01:27:39;17.50;;;12.00;;
58784;SDS011;44557;51.862;19.378;2022-10-26T01:30:07;16.50;;;12.30;;
58784;SDS011;44557;51.862;19.378;2022-10-26T01:31:13;16.00;;;12.60;;
58784;SDS011;44557;51.862;19.378;2022-10-26T01:32:22;14.10;;;12.20;;
58784;SDS011;44557;51.862;19.378;2022-10-26T01:33:44;17.50;;;12.80;;
58784;SDS011;44557;51.862;19.378;2022-10-26T01:37:18;14.80;;;11.70;;
58784;SDS011;44557;51.862;19.378;2022-10-26T01:38:28;18.00;;;13.10;;
58784;SDS011;44557;51.862;19.378;2022-10-26T01:39:47;17.50;;;12.90;;
58784;SDS011;44557;51.862;19.378;2022-10-26T01:41:07;17.00;;;12.90;;
58784;SDS011;44557;51.862;19.378;2022-10-26T01:42:16;15.30;;;12.60;;
58784;SDS011;44557;51.862;19.378;2022-10-26T01:43:21;18.50;;;13.80;;
58784;SDS011;44557;51.862;19.378;2022-10-26T01:44:33;16.00;;;12.70;;
58784;SDS011;44557;51.862;19.378;2022-10-26T01:45:43;18.00;;;12.80;;
58784;SDS011;44557;51.862;19.378;2022-10-26T01:46:48;20.20;;;13.20;;
58784;SDS011;44557;51.862;19.378;2022-10-26T01:47:54;16.50;;;13.30;;
58784;SDS011;44557;51.862;19.378;2022-10-26T01:48:58;17.40;;;13.80;;
58784;SDS011;44557;51.862;19.378;2022-10-26T01:50:05;16.00;;;13.50;;
58784;SDS011;44557;51.862;19.378;2022-10-26T01:51:08;20.10;;;13.60;;
58784;SDS011;44557;51.862;19.378;2022-10-26T01:52:12;17.70;;;13.70;;
58784;SDS011;44557;51.862;19.378;2022-10-26T01:53:14;19.70;;;14.50;;
58784;SDS011;44557;51.862;19.378;2022-10-26T01:54:16;16.60;;;13.70;;
58784;SDS011;44557;51.862;19.378;2022-10-26T01:56:52;19.80;;;15.00;;
58784;SDS011;44557;51.862;19.378;2022-10-26T01:57:59;18.40;;;15.40;;
58784;SDS011;44557;51.862;19.378;2022-10-26T02:00:18;21.80;;;15.20;;
58784;SDS011;44557;51.862;19.378;2022-10-26T02:08:17;21.50;;;16.50;;
58784;SDS011;44557;51.862;19.378;2022-10-26T02:09:29;24.40;;;15.80;;
58784;SDS011;44557;51.862;19.378;2022-10-26T02:11:04;21.30;;;16.70;;
58784;SDS011;44557;51.862;19.378;2022-10-26T02:12:57;22.90;;;16.50;;
58784;SDS011;44557;51.862;19.378;2022-10-26T02:13:41;24.70;;;16.90;;
58784;SDS011;44557;51.862;19.378;2022-10-26T02:14:59;23.00;;;17.20;;
58784;SDS011;44557;51.862;19.378;2022-10-26T02:19:04;26.50;;;17.50;;
58784;SDS011;44557;51.862;19.378;2022-10-26T02:20:24;26.00;;;17.90;;
58784;SDS011;44557;51.862;19.378;2022-10-26T02:21:43;26.40;;;17.50;;
58784;SDS011;44557;51.862;19.378;2022-10-26T02:22:49;23.00;;;18.30;;
58784;SDS011;44557;51.862;19.378;2022-10-26T02:23:53;23.20;;;17.10;;
58784;SDS011;44557;51.862;19.378;2022-10-26T02:24:57;22.90;;;17.50;;
58784;SDS011;44557;51.862;19.378;2022-10-26T02:26:02;23.30;;;17.00;;
58784;SDS011;44557;51.862;19.378;2022-10-26T02:27:08;24.00;;;18.90;;
58784;SDS011;44557;51.862;19.378;2022-10-26T02:28:16;26.90;;;18.30;;
58784;SDS011;44557;51.862;19.378;2022-10-26T02:29:21;25.60;;;19.00;;
58784;SDS011;44557;51.862;19.378;2022-10-26T02:30:24;23.30;;;17.90;;
58784;SDS011;44557;51.862;19.378;2022-10-26T02:31:27;21.70;;;17.20;;
58784;SDS011;44557;51.862;19.378;2022-10-26T02:32:33;24.80;;;18.90;;
58784;SDS011;44557;51.862;19.378;2022-10-26T02:33:39;28.30;;;18.80;;
58784;SDS011;44557;51.862;19.378;2022-10-26T02:34:45;26.40;;;20.20;;
58784;SDS011;44557;51.862;19.378;2022-10-26T02:35:50;27.40;;;19.40;;
58784;SDS011;44557;51.862;19.378;2022-10-26T02:36:55;27.60;;;18.70;;
58784;SDS011;44557;51.862;19.378;2022-10-26T02:38:03;23.70;;;18.60;;
58784;SDS011;44557;51.862;19.378;2022-10-26T02:39:09;25.70;;;17.90;;
58784;SDS011;44557;51.862;19.378;2022-10-26T02:40:13;24.80;;;18.40;;
58784;SDS011;44557;51.862;19.378;2022-10-26T02:41:19;23.90;;;17.70;;
58784;SDS011;44557;51.862;19.378;2022-10-26T02:42:24;26.00;;;19.70;;
58784;SDS011;44557;51.862;19.378;2022-10-26T02:43:28;28.40;;;18.30;;
58784;SDS011;44557;51.862;19.378;2022-10-26T02:44:38;24.60;;;18.90;;
58784;SDS011;44557;51.862;19.378;2022-10-26T02:45:46;25.20;;;18.40;;
58784;SDS011;44557;51.862;19.378;2022-10-26T02:46:51;25.80;;;19.20;;
58784;SDS011;44557;51.862;19.378;2022-10-26T02:47:54;25.20;;;18.20;;
58784;SDS011;44557;51.862;19.378;2022-10-26T02:48:56;25.10;;;18.50;;
58784;SDS011;44557;51.862;19.378;2022-10-26T02:49:58;24.30;;;18.60;;
58784;SDS011;44557;51.862;19.378;2022-10-26T02:51:02;24.30;;;18.60;;
58784;SDS011;44557;51.862;19.378;2022-10-26T02:52:10;26.30;;;18.30;;
58784;SDS011;44557;51.862;19.378;2022-10-26T02:53:24;22.50;;;17.20;;
58784;SDS011;44557;51.862;19.378;2022-10-26T02:54:45;24.70;;;18.70;;
58784;SDS011;44557;51.862;19.378;2022-10-26T02:55:49;26.40;;;17.80;;
58784;SDS011;44557;51.862;19.378;2022-10-26T02:56:56;25.30;;;18.80;;
58784;SDS011;44557;51.862;19.378;2022-10-26T02:58:11;23.50;;;18.90;;
58784;SDS011;44557;51.862;19.378;2022-10-26T02:59:18;25.80;;;19.30;;
58784;SDS011;44557;51.862;19.378;2022-10-26T03:00:21;26.00;;;20.20;;
58784;SDS011;44557;51.862;19.378;2022-10-26T03:01:23;25.40;;;19.30;;
58784;SDS011;44557;51.862;19.378;2022-10-26T03:02:25;26.90;;;19.60;;
58784;SDS011;44557;51.862;19.378;2022-10-26T03:03:27;28.00;;;19.20;;
58784;SDS011;44557;51.862;19.378;2022-10-26T03:04:29;26.10;;;19.70;;
58784;SDS011;44557;51.862;19.378;2022-10-26T03:05:32;27.50;;;19.60;;
58784;SDS011;44557;51.862;19.378;2022-10-26T03:06:36;26.70;;;17.80;;
58784;SDS011;44557;51.862;19.378;2022-10-26T03:07:38;24.00;;;18.70;;
58784;SDS011;44557;51.862;19.378;2022-10-26T03:08:39;26.90;;;18.90;;
58784;SDS011;44557;51.862;19.378;2022-10-26T03:09:41;27.00;;;19.50;;
58784;SDS011;44557;51.862;19.378;2022-10-26T03:10:43;23.40;;;17.60;;
58784;SDS011;44557;51.862;19.378;2022-10-26T03:11:45;25.90;;;18.50;;
58784;SDS011;44557;51.862;19.378;2022-10-26T03:12:48;25.30;;;18.80;;
58784;SDS011;44557;51.862;19.378;2022-10-26T03:13:49;23.40;;;18.00;;
58784;SDS011;44557;51.862;19.378;2022-10-26T03:14:50;26.00;;;19.70;;
58784;SDS011;44557;51.862;19.378;2022-10-26T03:15:55;24.00;;;17.90;;
58784;SDS011;44557;51.862;19.378;2022-10-26T03:17:00;24.40;;;18.90;;
58784;SDS011;44557;51.862;19.378;2022-10-26T03:18:01;25.90;;;18.80;;
58784;SDS011;44557;51.862;19.378;2022-10-26T03:19:03;24.90;;;18.00;;
58784;SDS011;44557;51.862;19.378;2022-10-26T03:20:05;25.10;;;18.50;;
58784;SDS011;44557;51.862;19.378;2022-10-26T03:21:07;21.80;;;17.80;;
58784;SDS011;44557;51.862;19.378;2022-10-26T03:22:09;24.90;;;18.30;;
58784;SDS011;44557;51.862;19.378;2022-10-26T03:23:10;23.50;;;17.00;;
58784;SDS011;44557;51.862;19.378;2022-10-26T03:24:12;25.60;;;18.50;;
58784;SDS011;44557;51.862;19.378;2022-10-26T03:25:14;25.90;;;18.50;;
58784;SDS011;44557;51.862;19.378;2022-10-26T03:26:18;24.20;;;18.10;;
58784;SDS011;44557;51.862;19.378;2022-10-26T03:27:20;24.70;;;17.90;;
58784;SDS011;44557;51.862;19.378;2022-10-26T03:28:22;24.30;;;18.20;;
58784;SDS011;44557;51.862;19.378;2022-10-26T03:29:24;23.50;;;17.70;;
58784;SDS011;44557;51.862;19.378;2022-10-26T03:30:25;26.50;;;18.70;;
58784;SDS011;44557;51.862;19.378;2022-10-26T03:31:28;23.30;;;18.70;;
58784;SDS011;44557;51.862;19.378;2022-10-26T03:32:29;23.40;;;18.50;;
58784;SDS011;44557;51.862;19.378;2022-10-26T03:33:31;24.10;;;19.00;;
58784;SDS011;44557;51.862;19.378;2022-10-26T03:34:32;24.00;;;18.20;;
58784;SDS011;44557;51.862;19.378;2022-10-26T03:35:34;26.50;;;18.40;;
58784;SDS011;44557;51.862;19.378;2022-10-26T03:36:35;25.20;;;18.60;;
58784;SDS011;44557;51.862;19.378;2022-10-26T03:37:37;22.50;;;17.20;;
58784;SDS011;44557;51.862;19.378;2022-10-26T03:38:38;23.40;;;18.50;;
58784;SDS011;44557;51.862;19.378;2022-10-26T03:39:40;23.30;;;19.00;;
58784;SDS011;44557;51.862;19.378;2022-10-26T03:40:41;26.40;;;19.50;;
58784;SDS011;44557;51.862;19.378;2022-10-26T03:41:43;24.60;;;18.30;;
58784;SDS011;44557;51.862;19.378;2022-10-26T03:42:45;25.10;;;18.60;;
58784;SDS011;44557;51.862;19.378;2022-10-26T03:43:46;24.60;;;18.40;;
58784;SDS011;44557;51.862;19.378;2022-10-26T03:44:49;24.00;;;18.90;;
58784;SDS011;44557;51.862;19.378;2022-10-26T03:45:50;23.40;;;18.30;;
58784;SDS011;44557;51.862;19.378;2022-10-26T03:46:52;23.50;;;18.60;;
58784;SDS011;44557;51.862;19.378;2022-10-26T03:47:53;27.50;;;19.10;;
58784;SDS011;44557;51.862;19.378;2022-10-26T03:48:54;26.00;;;18.50;;
58784;SDS011;44557;51.862;19.378;2022-10-26T03:49:56;23.70;;;17.40;;
58784;SDS011;44557;51.862;19.378;2022-10-26T03:50:58;24.00;;;17.70;;
58784;SDS011;44557;51.862;19.378;2022-10-26T03:52:00;23.80;;;18.20;;
58784;SDS011;44557;51.862;19.378;2022-10-26T03:53:02;30.10;;;18.30;;
58784;SDS011;44557;51.862;19.378;2022-10-26T03:54:04;25.50;;;17.30;;
58784;SDS011;44557;51.862;19.378;2022-10-26T03:55:06;25.60;;;17.40;;
58784;SDS011;44557;51.862;19.378;2022-10-26T03:56:09;23.80;;;18.20;;
58784;SDS011;44557;51.862;19.378;2022-10-26T03:57:10;24.30;;;17.80;;
58784;SDS011;44557;51.862;19.378;2022-10-26T03:58:12;26.30;;;18.50;;
58784;SDS011;44557;51.862;19.378;2022-10-26T03:59:13;24.50;;;18.30;;
58784;SDS011;44557;51.862;19.378;2022-10-26T04:00:15;25.60;;;18.40;;
58784;SDS011;44557;51.862;19.378;2022-10-26T04:01:18;23.60;;;18.00;;
58784;SDS011;44557;51.862;19.378;2022-10-26T04:02:19;23.90;;;17.80;;
58784;SDS011;44557;51.862;19.378;2022-10-26T04:03:21;22.30;;;18.40;;
58784;SDS011;44557;51.862;19.378;2022-10-26T04:04:22;25.30;;;18.30;;
58784;SDS011;44557;51.862;19.378;2022-10-26T04:05:24;25.40;;;18.00;;
58784;SDS011;44557;51.862;19.378;2022-10-26T04:06:27;24.00;;;18.40;;
58784;SDS011;44557;51.862;19.378;2022-10-26T04:07:29;33.60;;;18.20;;
58784;SDS011;44557;51.862;19.378;2022-10-26T04:08:30;22.80;;;17.00;;
58784;SDS011;44557;51.862;19.378;2022-10-26T04:09:32;24.80;;;17.60;;
58784;SDS011;44557;51.862;19.378;2022-10-26T04:10:34;23.60;;;17.10;;
58784;SDS011;44557;51.862;19.378;2022-10-26T04:11:35;23.70;;;17.90;;
58784;SDS011;44557;51.862;19.378;2022-10-26T04:12:37;25.90;;;18.20;;
58784;SDS011;44557;51.862;19.378;2022-10-26T04:13:39;22.30;;;17.20;;
58784;SDS011;44557;51.862;19.378;2022-10-26T04:14:40;22.90;;;17.60;;
58784;SDS011;44557;51.862;19.378;2022-10-26T04:15:42;22.90;;;17.30;;
58784;SDS011;44557;51.862;19.378;2022-10-26T04:16:43;21.90;;;17.00;;
58784;SDS011;44557;51.862;19.378;2022-10-26T04:17:45;20.90;;;17.10;;
58784;SDS011;44557;51.862;19.378;2022-10-26T04:18:47;22.30;;;16.20;;
58784;SDS011;44557;51.862;19.378;2022-10-26T04:19:49;25.40;;;17.00;;
58784;SDS011;44557;51.862;19.378;2022-10-26T04:20:51;705.90;;;16.90;;
58784;SDS011;44557;51.862;19.378;2022-10-26T04:21:52;21.40;;;16.30;;
58784;SDS011;44557;51.862;19.378;2022-10-26T04:22:57;18.80;;;15.30;;
58784;SDS011;44557;51.862;19.378;2022-10-26T04:24:00;20.80;;;16.60;;
58784;SDS011;44557;51.862;19.378;2022-10-26T04:25:05;20.70;;;17.20;;
58784;SDS011;44557;51.862;19.378;2022-10-26T04:26:08;24.10;;;16.60;;
58784;SDS011;44557;51.862;19.378;2022-10-26T04:27:09;21.00;;;16.40;;
58784;SDS011;44557;51.862;19.378;2022-10-26T04:28:11;21.30;;;15.50;;
58784;SDS011;44557;51.862;19.378;2022-10-26T04:29:14;24.90;;;17.20;;
58784;SDS011;44557;51.862;19.378;2022-10-26T04:30:15;21.60;;;16.40;;
58784;SDS011;44557;51.862;19.378;2022-10-26T04:31:16;21.00;;;16.90;;
58784;SDS011;44557;51.862;19.378;2022-10-26T04:32:18;24.80;;;17.90;;
58784;SDS011;44557;51.862;19.378;2022-10-26T04:33:19;21.60;;;17.40;;
58784;SDS011;44557;51.862;19.378;2022-10-26T04:34:21;24.70;;;16.90;;
58784;SDS011;44557;51.862;19.378;2022-10-26T04:35:23;24.50;;;16.10;;
58784;SDS011;44557;51.862;19.378;2022-10-26T04:36:24;21.50;;;16.30;;
58784;SDS011;44557;51.862;19.378;2022-10-26T04:37:26;22.30;;;16.90;;
58784;SDS011;44557;51.862;19.378;2022-10-26T04:38:27;23.10;;;17.30;;
58784;SDS011;44557;51.862;19.378;2022-10-26T04:39:29;22.20;;;16.80;;
58784;SDS011;44557;51.862;19.378;2022-10-26T04:40:31;25.80;;;16.60;;
58784;SDS011;44557;51.862;19.378;2022-10-26T04:41:34;22.70;;;16.70;;
58784;SDS011;44557;51.862;19.378;2022-10-26T04:42:45;26.70;;;16.90;;
58784;SDS011;44557;51.862;19.378;2022-10-26T04:43:47;27.80;;;17.50;;
58784;SDS011;44557;51.862;19.378;2022-10-26T04:44:49;20.70;;;16.90;;
58784;SDS011;44557;51.862;19.378;2022-10-26T04:45:57;22.80;;;16.70;;
58784;SDS011;44557;51.862;19.378;2022-10-26T04:46:58;23.50;;;16.60;;
58784;SDS011;44557;51.862;19.378;2022-10-26T04:48:01;23.60;;;18.10;;
58784;SDS011;44557;51.862;19.378;2022-10-26T04:49:05;22.50;;;16.80;;
58784;SDS011;44557;51.862;19.378;2022-10-26T04:50:07;22.90;;;17.00;;
58784;SDS011;44557;51.862;19.378;2022-10-26T04:51:10;23.30;;;17.50;;
58784;SDS011;44557;51.862;19.378;2022-10-26T04:52:11;23.40;;;17.10;;
58784;SDS011;44557;51.862;19.378;2022-10-26T04:53:13;23.60;;;17.60;;
58784;SDS011;44557;51.862;19.378;2022-10-26T04:54:15;24.00;;;17.20;;
58784;SDS011;44557;51.862;19.378;2022-10-26T04:55:16;22.80;;;18.10;;
58784;SDS011;44557;51.862;19.378;2022-10-26T04:56:18;22.80;;;17.90;;
58784;SDS011;44557;51.862;19.378;2022-10-26T04:57:19;23.70;;;17.20;;
58784;SDS011;44557;51.862;19.378;2022-10-26T04:58:21;22.30;;;17.10;;
58784;SDS011;44557;51.862;19.378;2022-10-26T04:59:22;24.60;;;17.20;;
58784;SDS011;44557;51.862;19.378;2022-10-26T05:00:24;21.10;;;16.60;;
58784;SDS011;44557;51.862;19.378;2022-10-26T05:01:27;24.10;;;17.00;;
58784;SDS011;44557;51.862;19.378;2022-10-26T05:02:28;25.80;;;17.80;;
58784;SDS011;44557;51.862;19.378;2022-10-26T05:03:30;21.20;;;17.20;;
58784;SDS011;44557;51.862;19.378;2022-10-26T05:04:32;24.40;;;18.20;;
58784;SDS011;44557;51.862;19.378;2022-10-26T05:05:34;25.30;;;17.40;;
58784;SDS011;44557;51.862;19.378;2022-10-26T05:06:36;26.40;;;16.30;;
58784;SDS011;44557;51.862;19.378;2022-10-26T05:07:37;22.20;;;16.40;;
58784;SDS011;44557;51.862;19.378;2022-10-26T05:08:39;23.60;;;16.60;;
58784;SDS011;44557;51.862;19.378;2022-10-26T05:09:40;26.00;;;17.00;;
58784;SDS011;44557;51.862;19.378;2022-10-26T05:10:46;24.80;;;16.60;;
58784;SDS011;44557;51.862;19.378;2022-10-26T05:11:48;24.20;;;16.90;;
58784;SDS011;44557;51.862;19.378;2022-10-26T05:12:53;22.60;;;17.00;;
58784;SDS011;44557;51.862;19.378;2022-10-26T05:13:56;23.50;;;15.20;;
58784;SDS011;44557;51.862;19.378;2022-10-26T05:14:57;24.60;;;16.70;;
58784;SDS011;44557;51.862;19.378;2022-10-26T05:15:59;22.60;;;16.80;;
58784;SDS011;44557;51.862;19.378;2022-10-26T05:17:00;28.10;;;17.60;;
58784;SDS011;44557;51.862;19.378;2022-10-26T05:18:03;21.60;;;15.80;;
58784;SDS011;44557;51.862;19.378;2022-10-26T05:19:06;19.90;;;15.80;;
58784;SDS011;44557;51.862;19.378;2022-10-26T05:20:07;22.40;;;16.00;;
58784;SDS011;44557;51.862;19.378;2022-10-26T05:21:13;30.20;;;16.90;;
58784;SDS011;44557;51.862;19.378;2022-10-26T05:22:20;23.10;;;16.00;;
58784;SDS011;44557;51.862;19.378;2022-10-26T05:23:22;22.40;;;16.10;;
58784;SDS011;44557;51.862;19.378;2022-10-26T05:24:24;21.50;;;16.30;;
58784;SDS011;44557;51.862;19.378;2022-10-26T05:25:26;31.10;;;15.70;;
58784;SDS011;44557;51.862;19.378;2022-10-26T05:26:29;23.40;;;17.10;;
58784;SDS011;44557;51.862;19.378;2022-10-26T05:27:30;22.40;;;16.30;;
58784;SDS011;44557;51.862;19.378;2022-10-26T05:28:32;21.20;;;16.30;;
58784;SDS011;44557;51.862;19.378;2022-10-26T05:29:33;22.50;;;17.30;;
58784;SDS011;44557;51.862;19.378;2022-10-26T05:30:35;22.00;;;16.10;;
58784;SDS011;44557;51.862;19.378;2022-10-26T05:31:37;22.60;;;16.60;;
58784;SDS011;44557;51.862;19.378;2022-10-26T05:32:38;23.20;;;16.10;;
58784;SDS011;44557;51.862;19.378;2022-10-26T05:33:40;31.10;;;16.50;;
58784;SDS011;44557;51.862;19.378;2022-10-26T05:34:41;22.30;;;16.50;;
58784;SDS011;44557;51.862;19.378;2022-10-26T05:35:43;25.40;;;17.00;;
58784;SDS011;44557;51.862;19.378;2022-10-26T05:36:44;24.70;;;14.40;;
58784;SDS011;44557;51.862;19.378;2022-10-26T05:37:46;26.10;;;16.00;;
58784;SDS011;44557;51.862;19.378;2022-10-26T05:38:47;19.30;;;15.40;;
58784;SDS011;44557;51.862;19.378;2022-10-26T05:39:49;22.20;;;16.40;;
58784;SDS011;44557;51.862;19.378;2022-10-26T05:40:51;30.60;;;16.10;;
58784;SDS011;44557;51.862;19.378;2022-10-26T05:41:54;29.00;;;17.00;;
58784;SDS011;44557;51.862;19.378;2022-10-26T05:42:59;22.80;;;15.10;;
58784;SDS011;44557;51.862;19.378;2022-10-26T05:44:06;30.30;;;15.00;;
58784;SDS011;44557;51.862;19.378;2022-10-26T05:45:07;26.60;;;15.30;;
58784;SDS011;44557;51.862;19.378;2022-10-26T05:46:09;32.20;;;14.60;;
58784;SDS011;44557;51.862;19.378;2022-10-26T05:47:11;29.30;;;15.10;;
58784;SDS011;44557;51.862;19.378;2022-10-26T05:48:13;19.40;;;14.60;;
58784;SDS011;44557;51.862;19.378;2022-10-26T05:49:14;22.70;;;14.40;;
58784;SDS011;44557;51.862;19.378;2022-10-26T05:50:16;24.50;;;15.60;;
58784;SDS011;44557;51.862;19.378;2022-10-26T05:51:18;20.20;;;14.60;;
58784;SDS011;44557;51.862;19.378;2022-10-26T05:52:19;30.20;;;14.50;;
58784;SDS011;44557;51.862;19.378;2022-10-26T05:53:21;27.80;;;14.70;;
58784;SDS011;44557;51.862;19.378;2022-10-26T05:54:22;29.50;;;14.30;;
58784;SDS011;44557;51.862;19.378;2022-10-26T05:55:24;26.50;;;16.20;;
58784;SDS011;44557;51.862;19.378;2022-10-26T05:56:36;24.10;;;15.10;;
58784;SDS011;44557;51.862;19.378;2022-10-26T05:57:39;25.00;;;14.60;;
58784;SDS011;44557;51.862;19.378;2022-10-26T05:58:41;28.50;;;14.90;;
58784;SDS011;44557;51.862;19.378;2022-10-26T05:59:42;20.70;;;15.30;;
58784;SDS011;44557;51.862;19.378;2022-10-26T06:00:57;18.00;;;13.70;;
58784;SDS011;44557;51.862;19.378;2022-10-26T06:02:22;20.20;;;13.80;;
58784;SDS011;44557;51.862;19.378;2022-10-26T06:05:09;19.20;;;12.30;;
58784;SDS011;44557;51.862;19.378;2022-10-26T06:07:22;19.30;;;13.40;;
58784;SDS011;44557;51.862;19.378;2022-10-26T06:08:24;17.60;;;12.20;;
58784;SDS011;44557;51.862;19.378;2022-10-26T06:09:28;25.50;;;12.80;;
58784;SDS011;44557;51.862;19.378;2022-10-26T06:10:29;19.70;;;13.00;;
58784;SDS011;44557;51.862;19.378;2022-10-26T06:11:31;22.70;;;12.80;;
58784;SDS011;44557;51.862;19.378;2022-10-26T06:12:33;20.70;;;13.60;;
58784;SDS011;44557;51.862;19.378;2022-10-26T06:13:35;23.10;;;13.10;;
58784;SDS011;44557;51.862;19.378;2022-10-26T06:14:37;22.00;;;12.40;;
58784;SDS011;44557;51.862;19.378;2022-10-26T06:18:43;19.80;;;12.40;;
58784;SDS011;44557;51.862;19.378;2022-10-26T06:20:08;27.20;;;12.80;;
58784;SDS011;44557;51.862;19.378;2022-10-26T06:23:08;24.90;;;12.70;;
58784;SDS011;44557;51.862;19.378;2022-10-26T06:27:51;18.60;;;13.40;;
58784;SDS011;44557;51.862;19.378;2022-10-26T06:30:18;26.20;;;13.60;;
58784;SDS011;44557;51.862;19.378;2022-10-26T06:31:23;24.10;;;13.30;;
58784;SDS011;44557;51.862;19.378;2022-10-26T06:32:25;21.70;;;13.00;;
58784;SDS011;44557;51.862;19.378;2022-10-26T06:33:27;19.70;;;12.20;;
58784;SDS011;44557;51.862;19.378;2022-10-26T06:34:32;22.30;;;12.90;;
58784;SDS011;44557;51.862;19.378;2022-10-26T06:36:40;22.50;;;13.30;;
58784;SDS011;44557;51.862;19.378;2022-10-26T06:37:43;18.40;;;12.90;;
58784;SDS011;44557;51.862;19.378;2022-10-26T06:38:46;23.80;;;14.50;;
58784;SDS011;44557;51.862;19.378;2022-10-26T06:39:49;16.60;;;12.10;;
58784;SDS011;44557;51.862;19.378;2022-10-26T06:40:54;22.70;;;13.30;;
58784;SDS011;44557;51.862;19.378;2022-10-26T06:41:57;25.40;;;12.10;;
58784;SDS011;44557;51.862;19.378;2022-10-26T06:42:59;21.70;;;12.90;;
58784;SDS011;44557;51.862;19.378;2022-10-26T06:44:01;21.30;;;12.70;;
58784;SDS011;44557;51.862;19.378;2022-10-26T06:45:04;21.30;;;11.70;;
58784;SDS011;44557;51.862;19.378;2022-10-26T06:46:54;18.10;;;12.50;;
58784;SDS011;44557;51.862;19.378;2022-10-26T06:49:10;25.70;;;11.00;;
58784;SDS011;44557;51.862;19.378;2022-10-26T06:51:50;23.70;;;11.10;;